sensor_id;sensor_type;location;lat;lon;timestamp;pressure;altitude;pressure_sealevel;temperature;humidity
17521;BME280;8878;-33.370;-70.552;2023-12-22T00:01:39;91993.00;;;22.46;47.32
17521;BME280;8878;-33.370;-70.552;2023-12-22T00:04:09;92003.34;;;22.32;47.52
17521;BME280;8878;-33.370;-70.552;2023-12-22T00:06:39;92000.66;;;22.32;47.89
17521;BME280;8878;-33.370;-70.552;2023-12-22T00:09:09;92011.31;;;22.29;48.09
17521;BME280;8878;-33.370;-70.552;2023-12-22T00:11:38;92010.69;;;21.95;48.99
17521;BME280;8878;-33.370;-70.552;2023-12-22T00:14:09;92015.53;;;22.02;49.25
17521;BME280;8878;-33.370;-70.552;2023-12-22T00:16:38;92019.53;;;21.83;49.35
17521;BME280;8878;-33.370;-70.552;2023-12-22T00:19:07;92018.00;;;21.70;49.47
17521;BME280;8878;-33.370;-70.552;2023-12-22T00:21:37;92022.13;;;21.56;50.24
17521;BME280;8878;-33.370;-70.552;2023-12-22T00:24:07;92014.88;;;21.56;50.50
17521;BME280;8878;-33.370;-70.552;2023-12-22T00:26:36;92021.34;;;21.43;50.47
17521;BME280;8878;-33.370;-70.552;2023-12-22T00:29:05;92028.16;;;21.28;50.32
17521;BME280;8878;-33.370;-70.552;2023-12-22T00:31:36;92037.13;;;20.99;51.35
17521;BME280;8878;-33.370;-70.552;2023-12-22T00:34:06;92025.38;;;20.92;52.13
17521;BME280;8878;-33.370;-70.552;2023-12-22T00:36:36;92033.22;;;20.64;53.14
17521;BME280;8878;-33.370;-70.552;2023-12-22T00:39:05;92038.63;;;20.76;52.85
17521;BME280;8878;-33.370;-70.552;2023-12-22T00:41:34;92039.78;;;20.87;52.73
17521;BME280;8878;-33.370;-70.552;2023-12-22T00:44:03;92037.06;;;20.75;52.17
17521;BME280;8878;-33.370;-70.552;2023-12-22T00:46:33;92037.09;;;20.54;52.51
17521;BME280;8878;-33.370;-70.552;2023-12-22T00:49:04;92042.53;;;20.46;53.48
17521;BME280;8878;-33.370;-70.552;2023-12-22T00:51:33;92047.53;;;20.26;53.68
17521;BME280;8878;-33.370;-70.552;2023-12-22T00:54:02;92055.03;;;20.12;54.68
17521;BME280;8878;-33.370;-70.552;2023-12-22T00:56:32;92048.78;;;20.08;54.38
17521;BME280;8878;-33.370;-70.552;2023-12-22T00:59:01;92052.25;;;20.09;54.71
17521;BME280;8878;-33.370;-70.552;2023-12-22T01:01:30;92038.44;;;19.98;55.22
17521;BME280;8878;-33.370;-70.552;2023-12-22T01:03:59;92041.13;;;19.98;55.41
17521;BME280;8878;-33.370;-70.552;2023-12-22T01:06:30;92057.19;;;20.19;54.92
17521;BME280;8878;-33.370;-70.552;2023-12-22T01:09:00;92059.19;;;20.30;54.93
17521;BME280;8878;-33.370;-70.552;2023-12-22T01:11:29;92052.41;;;20.33;54.85
17521;BME280;8878;-33.370;-70.552;2023-12-22T01:13:58;92061.03;;;20.39;54.38
17521;BME280;8878;-33.370;-70.552;2023-12-22T01:16:27;92072.72;;;20.34;54.83
17521;BME280;8878;-33.370;-70.552;2023-12-22T01:18:57;92077.75;;;20.36;55.36
17521;BME280;8878;-33.370;-70.552;2023-12-22T01:21:26;92064.41;;;20.27;55.54
17521;BME280;8878;-33.370;-70.552;2023-12-22T01:23:57;92070.94;;;20.17;55.71
17521;BME280;8878;-33.370;-70.552;2023-12-22T01:26:27;92079.16;;;20.12;56.06
17521;BME280;8878;-33.370;-70.552;2023-12-22T01:28:56;92071.78;;;20.09;55.90
17521;BME280;8878;-33.370;-70.552;2023-12-22T01:31:25;92065.44;;;20.14;57.22
17521;BME280;8878;-33.370;-70.552;2023-12-22T01:33:55;92075.63;;;20.20;57.29
17521;BME280;8878;-33.370;-70.552;2023-12-22T01:36:24;92072.84;;;20.17;56.81
17521;BME280;8878;-33.370;-70.552;2023-12-22T01:38:53;92084.41;;;20.29;56.39
17521;BME280;8878;-33.370;-70.552;2023-12-22T01:41:25;92085.72;;;20.23;56.22
17521;BME280;8878;-33.370;-70.552;2023-12-22T01:43:56;92080.69;;;20.22;57.17
17521;BME280;8878;-33.370;-70.552;2023-12-22T01:46:25;92080.34;;;20.03;56.21
17521;BME280;8878;-33.370;-70.552;2023-12-22T01:48:55;92087.13;;;20.00;57.46
17521;BME280;8878;-33.370;-70.552;2023-12-22T01:51:24;92082.03;;;20.07;57.86
17521;BME280;8878;-33.370;-70.552;2023-12-22T01:53:54;92085.34;;;20.04;57.24
17521;BME280;8878;-33.370;-70.552;2023-12-22T01:56:25;92085.28;;;19.92;57.92
17521;BME280;8878;-33.370;-70.552;2023-12-22T01:58:57;92085.06;;;19.97;58.11
17521;BME280;8878;-33.370;-70.552;2023-12-22T02:01:28;92094.03;;;20.01;58.33
17521;BME280;8878;-33.370;-70.552;2023-12-22T02:03:59;92089.84;;;19.91;58.83
17521;BME280;8878;-33.370;-70.552;2023-12-22T02:06:30;92097.41;;;19.89;59.23
17521;BME280;8878;-33.370;-70.552;2023-12-22T02:09:00;92091.78;;;19.82;59.54
17521;BME280;8878;-33.370;-70.552;2023-12-22T02:11:32;92094.91;;;19.84;58.80
17521;BME280;8878;-33.370;-70.552;2023-12-22T02:14:02;92094.63;;;19.77;59.33
17521;BME280;8878;-33.370;-70.552;2023-12-22T02:16:37;92104.97;;;19.58;59.18
17521;BME280;8878;-33.370;-70.552;2023-12-22T02:19:24;92101.78;;;19.65;59.81
17521;BME280;8878;-33.370;-70.552;2023-12-22T02:22:02;92108.41;;;19.67;62.28
17521;BME280;8878;-33.370;-70.552;2023-12-22T02:24:34;92104.78;;;19.63;66.67
17521;BME280;8878;-33.370;-70.552;2023-12-22T02:27:05;92101.22;;;19.50;66.92
17521;BME280;8878;-33.370;-70.552;2023-12-22T02:29:37;92110.03;;;19.42;68.24
17521;BME280;8878;-33.370;-70.552;2023-12-22T02:32:14;92109.75;;;19.35;69.69
17521;BME280;8878;-33.370;-70.552;2023-12-22T02:34:50;92104.47;;;19.18;69.79
17521;BME280;8878;-33.370;-70.552;2023-12-22T02:37:21;92111.72;;;19.09;72.19
17521;BME280;8878;-33.370;-70.552;2023-12-22T02:39:53;92113.91;;;18.98;74.06
17521;BME280;8878;-33.370;-70.552;2023-12-22T02:42:22;92114.25;;;18.88;74.04
17521;BME280;8878;-33.370;-70.552;2023-12-22T02:48:20;92115.84;;;18.81;76.37
17521;BME280;8878;-33.370;-70.552;2023-12-22T02:51:13;92115.69;;;18.77;76.92
17521;BME280;8878;-33.370;-70.552;2023-12-22T02:54:14;92113.03;;;18.68;75.87
17521;BME280;8878;-33.370;-70.552;2023-12-22T02:57:06;92108.94;;;18.62;77.03
17521;BME280;8878;-33.370;-70.552;2023-12-22T03:00:41;92117.44;;;18.64;78.09
17521;BME280;8878;-33.370;-70.552;2023-12-22T03:03:21;92117.59;;;18.59;74.10
17521;BME280;8878;-33.370;-70.552;2023-12-22T03:06:16;92117.72;;;18.46;74.24
17521;BME280;8878;-33.370;-70.552;2023-12-22T03:09:04;92127.44;;;18.42;75.83
17521;BME280;8878;-33.370;-70.552;2023-12-22T03:12:12;92130.91;;;18.33;76.41
17521;BME280;8878;-33.370;-70.552;2023-12-22T03:15:01;92129.66;;;18.31;77.31
17521;BME280;8878;-33.370;-70.552;2023-12-22T03:17:43;92128.69;;;18.27;76.33
17521;BME280;8878;-33.370;-70.552;2023-12-22T03:20:31;92129.97;;;18.29;74.78
17521;BME280;8878;-33.370;-70.552;2023-12-22T03:23:26;92131.84;;;18.29;75.61
17521;BME280;8878;-33.370;-70.552;2023-12-22T03:26:33;92130.44;;;18.31;70.81
17521;BME280;8878;-33.370;-70.552;2023-12-22T03:29:33;92134.03;;;18.27;68.32
17521;BME280;8878;-33.370;-70.552;2023-12-22T03:32:06;92131.22;;;18.32;68.64
17521;BME280;8878;-33.370;-70.552;2023-12-22T03:34:41;92124.94;;;18.28;65.62
17521;BME280;8878;-33.370;-70.552;2023-12-22T03:37:22;92125.22;;;18.26;67.80
17521;BME280;8878;-33.370;-70.552;2023-12-22T03:39:58;92135.00;;;18.31;67.33
17521;BME280;8878;-33.370;-70.552;2023-12-22T03:42:42;92132.94;;;18.28;68.24
17521;BME280;8878;-33.370;-70.552;2023-12-22T03:45:22;92135.59;;;18.28;70.42
17521;BME280;8878;-33.370;-70.552;2023-12-22T03:47:52;92124.59;;;18.21;72.61
17521;BME280;8878;-33.370;-70.552;2023-12-22T03:50:21;92124.75;;;18.16;71.49
17521;BME280;8878;-33.370;-70.552;2023-12-22T03:52:50;92120.03;;;18.13;72.82
17521;BME280;8878;-33.370;-70.552;2023-12-22T03:55:20;92118.47;;;18.03;75.33
17521;BME280;8878;-33.370;-70.552;2023-12-22T03:57:48;92121.56;;;17.88;75.67
17521;BME280;8878;-33.370;-70.552;2023-12-22T04:00:19;92111.50;;;17.85;79.18
17521;BME280;8878;-33.370;-70.552;2023-12-22T04:02:48;92110.72;;;17.76;77.77
17521;BME280;8878;-33.370;-70.552;2023-12-22T04:05:18;92111.03;;;17.74;77.03
17521;BME280;8878;-33.370;-70.552;2023-12-22T04:07:47;92110.38;;;17.69;78.08
17521;BME280;8878;-33.370;-70.552;2023-12-22T04:10:17;92114.34;;;17.49;77.49
17521;BME280;8878;-33.370;-70.552;2023-12-22T04:12:46;92106.50;;;17.44;77.21
17521;BME280;8878;-33.370;-70.552;2023-12-22T04:15:16;92111.56;;;17.54;81.29
17521;BME280;8878;-33.370;-70.552;2023-12-22T04:17:48;92110.78;;;17.53;85.22
17521;BME280;8878;-33.370;-70.552;2023-12-22T04:20:17;92102.88;;;17.48;86.36
17521;BME280;8878;-33.370;-70.552;2023-12-22T04:22:47;92103.97;;;17.39;84.21
17521;BME280;8878;-33.370;-70.552;2023-12-22T04:25:16;92098.28;;;17.32;85.89
17521;BME280;8878;-33.370;-70.552;2023-12-22T04:27:46;92096.56;;;17.36;85.46
17521;BME280;8878;-33.370;-70.552;2023-12-22T04:30:16;92090.41;;;17.27;86.24
17521;BME280;8878;-33.370;-70.552;2023-12-22T04:32:48;92093.22;;;17.21;87.98
17521;BME280;8878;-33.370;-70.552;2023-12-22T04:35:17;92094.16;;;17.17;86.96
17521;BME280;8878;-33.370;-70.552;2023-12-22T04:37:46;92079.84;;;17.13;88.51
17521;BME280;8878;-33.370;-70.552;2023-12-22T04:40:16;92084.22;;;17.09;87.92
17521;BME280;8878;-33.370;-70.552;2023-12-22T04:42:46;92082.00;;;17.02;86.45
17521;BME280;8878;-33.370;-70.552;2023-12-22T04:45:15;92076.84;;;17.06;87.96
17521;BME280;8878;-33.370;-70.552;2023-12-22T04:47:45;92070.41;;;17.07;89.45
17521;BME280;8878;-33.370;-70.552;2023-12-22T04:50:16;92076.66;;;17.02;89.15
17521;BME280;8878;-33.370;-70.552;2023-12-22T04:52:45;92073.81;;;16.99;90.59
17521;BME280;8878;-33.370;-70.552;2023-12-22T04:55:14;92067.97;;;16.88;91.15
17521;BME280;8878;-33.370;-70.552;2023-12-22T04:57:44;92068.41;;;16.81;90.32
17521;BME280;8878;-33.370;-70.552;2023-12-22T05:00:14;92060.13;;;16.83;90.40
17521;BME280;8878;-33.370;-70.552;2023-12-22T05:02:43;92059.44;;;16.77;92.31
17521;BME280;8878;-33.370;-70.552;2023-12-22T05:05:13;92057.22;;;16.71;91.24
17521;BME280;8878;-33.370;-70.552;2023-12-22T05:07:45;92066.03;;;16.80;90.55
17521;BME280;8878;-33.370;-70.552;2023-12-22T05:10:14;92064.16;;;16.80;89.75
17521;BME280;8878;-33.370;-70.552;2023-12-22T05:12:43;92061.31;;;16.77;90.64
17521;BME280;8878;-33.370;-70.552;2023-12-22T05:15:13;92058.78;;;16.72;91.37
17521;BME280;8878;-33.370;-70.552;2023-12-22T05:17:42;92056.13;;;16.72;90.44
17521;BME280;8878;-33.370;-70.552;2023-12-22T05:20:11;92049.06;;;16.67;90.62
17521;BME280;8878;-33.370;-70.552;2023-12-22T05:22:41;92046.19;;;16.64;91.96
17521;BME280;8878;-33.370;-70.552;2023-12-22T05:25:13;92045.22;;;16.60;91.81
17521;BME280;8878;-33.370;-70.552;2023-12-22T05:30:42;92044.06;;;16.52;94.09
17521;BME280;8878;-33.370;-70.552;2023-12-22T05:33:11;92035.44;;;16.47;92.90
17521;BME280;8878;-33.370;-70.552;2023-12-22T05:35:40;92031.50;;;16.44;92.98
17521;BME280;8878;-33.370;-70.552;2023-12-22T05:38:11;92035.66;;;16.36;94.72
17521;BME280;8878;-33.370;-70.552;2023-12-22T05:40:42;92028.25;;;16.25;96.01
17521;BME280;8878;-33.370;-70.552;2023-12-22T05:43:12;92021.63;;;16.22;96.48
17521;BME280;8878;-33.370;-70.552;2023-12-22T05:45:41;92028.03;;;16.21;96.70
17521;BME280;8878;-33.370;-70.552;2023-12-22T05:48:10;92023.03;;;16.20;96.13
17521;BME280;8878;-33.370;-70.552;2023-12-22T05:50:40;92023.94;;;16.15;96.14
17521;BME280;8878;-33.370;-70.552;2023-12-22T05:53:09;92023.75;;;16.12;96.69
17521;BME280;8878;-33.370;-70.552;2023-12-22T05:55:38;92017.16;;;16.09;97.69
17521;BME280;8878;-33.370;-70.552;2023-12-22T05:58:09;92017.94;;;16.10;96.24
17521;BME280;8878;-33.370;-70.552;2023-12-22T06:00:38;92008.94;;;16.19;95.13
17521;BME280;8878;-33.370;-70.552;2023-12-22T06:03:08;92013.66;;;16.22;94.48
17521;BME280;8878;-33.370;-70.552;2023-12-22T06:05:37;92013.16;;;16.20;94.64
17521;BME280;8878;-33.370;-70.552;2023-12-22T06:08:06;92010.81;;;16.19;94.76
17521;BME280;8878;-33.370;-70.552;2023-12-22T06:10:37;92009.38;;;16.13;93.63
17521;BME280;8878;-33.370;-70.552;2023-12-22T06:13:09;92009.84;;;16.15;95.15
17521;BME280;8878;-33.370;-70.552;2023-12-22T06:15:38;92011.25;;;16.12;95.54
17521;BME280;8878;-33.370;-70.552;2023-12-22T06:18:07;92005.56;;;16.05;97.81
17521;BME280;8878;-33.370;-70.552;2023-12-22T06:20:36;91999.75;;;16.03;97.75
17521;BME280;8878;-33.370;-70.552;2023-12-22T06:23:06;91996.00;;;16.04;96.64
17521;BME280;8878;-33.370;-70.552;2023-12-22T06:25:35;91991.28;;;16.01;98.26
17521;BME280;8878;-33.370;-70.552;2023-12-22T06:28:05;91988.72;;;15.96;98.50
17521;BME280;8878;-33.370;-70.552;2023-12-22T06:30:36;91982.25;;;15.88;99.39
17521;BME280;8878;-33.370;-70.552;2023-12-22T06:33:05;91977.72;;;15.89;100.00
17521;BME280;8878;-33.370;-70.552;2023-12-22T06:35:34;91968.75;;;15.85;100.00
17521;BME280;8878;-33.370;-70.552;2023-12-22T06:38:04;91962.06;;;15.87;99.61
17521;BME280;8878;-33.370;-70.552;2023-12-22T06:40:35;91959.09;;;15.89;99.94
17521;BME280;8878;-33.370;-70.552;2023-12-22T06:43:04;91961.28;;;15.87;100.00
17521;BME280;8878;-33.370;-70.552;2023-12-22T06:45:35;91946.22;;;15.82;100.00
17521;BME280;8878;-33.370;-70.552;2023-12-22T06:48:05;91952.13;;;15.79;100.00
17521;BME280;8878;-33.370;-70.552;2023-12-22T06:50:35;91951.25;;;15.84;100.00
17521;BME280;8878;-33.370;-70.552;2023-12-22T06:53:06;91949.38;;;15.84;100.00
17521;BME280;8878;-33.370;-70.552;2023-12-22T06:55:36;91942.16;;;15.85;100.00
17521;BME280;8878;-33.370;-70.552;2023-12-22T06:58:06;91939.81;;;15.83;100.00
17521;BME280;8878;-33.370;-70.552;2023-12-22T07:00:37;91940.91;;;15.82;100.00
17521;BME280;8878;-33.370;-70.552;2023-12-22T07:03:06;91928.19;;;15.79;100.00
17521;BME280;8878;-33.370;-70.552;2023-12-22T07:05:36;91918.28;;;15.71;100.00
17521;BME280;8878;-33.370;-70.552;2023-12-22T07:08:05;91915.94;;;15.70;100.00
17521;BME280;8878;-33.370;-70.552;2023-12-22T07:10:35;91921.84;;;15.66;100.00
17521;BME280;8878;-33.370;-70.552;2023-12-22T07:13:04;91919.06;;;15.72;100.00
17521;BME280;8878;-33.370;-70.552;2023-12-22T07:15:33;91914.06;;;15.70;100.00
17521;BME280;8878;-33.370;-70.552;2023-12-22T07:18:05;91909.84;;;15.69;100.00
17521;BME280;8878;-33.370;-70.552;2023-12-22T07:20:34;91908.41;;;15.63;100.00
17521;BME280;8878;-33.370;-70.552;2023-12-22T07:23:04;91899.78;;;15.66;100.00
17521;BME280;8878;-33.370;-70.552;2023-12-22T07:25:36;91899.19;;;15.69;100.00
17521;BME280;8878;-33.370;-70.552;2023-12-22T07:28:06;91900.72;;;15.61;100.00
17521;BME280;8878;-33.370;-70.552;2023-12-22T07:30:36;91890.38;;;15.60;100.00
17521;BME280;8878;-33.370;-70.552;2023-12-22T07:33:07;91901.00;;;15.60;100.00
17521;BME280;8878;-33.370;-70.552;2023-12-22T07:35:36;91890.06;;;15.61;100.00
17521;BME280;8878;-33.370;-70.552;2023-12-22T07:38:06;91888.50;;;15.60;100.00
17521;BME280;8878;-33.370;-70.552;2023-12-22T07:40:36;91884.47;;;15.63;99.55
17521;BME280;8878;-33.370;-70.552;2023-12-22T07:43:05;91885.84;;;15.60;100.00
17521;BME280;8878;-33.370;-70.552;2023-12-22T07:45:35;91880.94;;;15.54;100.00
17521;BME280;8878;-33.370;-70.552;2023-12-22T07:48:07;91888.41;;;15.52;100.00
17521;BME280;8878;-33.370;-70.552;2023-12-22T07:50:39;91880.47;;;15.38;100.00
17521;BME280;8878;-33.370;-70.552;2023-12-22T07:53:08;91878.41;;;15.35;100.00
17521;BME280;8878;-33.370;-70.552;2023-12-22T07:55:38;91874.44;;;15.46;100.00
17521;BME280;8878;-33.370;-70.552;2023-12-22T07:58:07;91867.44;;;15.50;100.00
17521;BME280;8878;-33.370;-70.552;2023-12-22T08:00:36;91874.94;;;15.48;100.00
17521;BME280;8878;-33.370;-70.552;2023-12-22T08:03:07;91869.13;;;15.46;100.00
17521;BME280;8878;-33.370;-70.552;2023-12-22T08:05:37;91872.38;;;15.43;100.00
17521;BME280;8878;-33.370;-70.552;2023-12-22T08:08:08;91877.53;;;15.40;100.00
17521;BME280;8878;-33.370;-70.552;2023-12-22T08:10:37;91876.25;;;15.37;100.00
17521;BME280;8878;-33.370;-70.552;2023-12-22T08:13:07;91861.66;;;15.35;100.00
17521;BME280;8878;-33.370;-70.552;2023-12-22T08:15:36;91859.13;;;15.29;100.00
17521;BME280;8878;-33.370;-70.552;2023-12-22T08:18:09;91857.41;;;15.25;100.00
17521;BME280;8878;-33.370;-70.552;2023-12-22T08:20:39;91861.63;;;15.26;100.00
17521;BME280;8878;-33.370;-70.552;2023-12-22T08:23:09;91855.81;;;15.24;100.00
17521;BME280;8878;-33.370;-70.552;2023-12-22T08:25:39;91855.63;;;15.20;100.00
17521;BME280;8878;-33.370;-70.552;2023-12-22T08:28:09;91857.91;;;15.13;100.00
17521;BME280;8878;-33.370;-70.552;2023-12-22T08:30:39;91849.25;;;15.08;100.00
17521;BME280;8878;-33.370;-70.552;2023-12-22T08:33:10;91863.97;;;15.05;100.00
17521;BME280;8878;-33.370;-70.552;2023-12-22T08:35:39;91860.59;;;15.00;100.00
17521;BME280;8878;-33.370;-70.552;2023-12-22T08:38:09;91862.47;;;14.99;100.00
17521;BME280;8878;-33.370;-70.552;2023-12-22T08:40:40;91862.38;;;15.04;100.00
17521;BME280;8878;-33.370;-70.552;2023-12-22T08:43:10;91864.38;;;14.99;100.00
17521;BME280;8878;-33.370;-70.552;2023-12-22T08:45:39;91865.06;;;14.91;100.00
17521;BME280;8878;-33.370;-70.552;2023-12-22T08:48:10;91862.50;;;14.85;100.00
17521;BME280;8878;-33.370;-70.552;2023-12-22T08:50:39;91853.94;;;14.88;100.00
17521;BME280;8878;-33.370;-70.552;2023-12-22T08:53:09;91856.09;;;14.86;100.00
17521;BME280;8878;-33.370;-70.552;2023-12-22T08:55:38;91859.06;;;14.85;100.00
17521;BME280;8878;-33.370;-70.552;2023-12-22T08:58:08;91856.22;;;14.81;100.00
17521;BME280;8878;-33.370;-70.552;2023-12-22T09:00:37;91856.81;;;14.78;100.00
17521;BME280;8878;-33.370;-70.552;2023-12-22T09:03:06;91853.47;;;14.73;100.00
17521;BME280;8878;-33.370;-70.552;2023-12-22T09:05:38;91849.56;;;14.70;100.00
17521;BME280;8878;-33.370;-70.552;2023-12-22T09:08:09;91854.16;;;14.78;100.00
17521;BME280;8878;-33.370;-70.552;2023-12-22T09:10:37;91852.91;;;14.76;100.00
17521;BME280;8878;-33.370;-70.552;2023-12-22T09:13:07;91848.47;;;14.71;100.00
17521;BME280;8878;-33.370;-70.552;2023-12-22T09:15:36;91855.16;;;14.69;100.00
17521;BME280;8878;-33.370;-70.552;2023-12-22T09:18:06;91849.06;;;14.68;100.00
17521;BME280;8878;-33.370;-70.552;2023-12-22T09:20:36;91849.06;;;14.68;100.00
17521;BME280;8878;-33.370;-70.552;2023-12-22T09:23:06;91854.69;;;14.53;100.00
17521;BME280;8878;-33.370;-70.552;2023-12-22T09:25:37;91854.28;;;14.32;100.00
17521;BME280;8878;-33.370;-70.552;2023-12-22T09:28:06;91849.56;;;14.43;100.00
17521;BME280;8878;-33.370;-70.552;2023-12-22T09:30:35;91853.63;;;14.54;100.00
17521;BME280;8878;-33.370;-70.552;2023-12-22T09:33:06;91857.44;;;14.62;100.00
17521;BME280;8878;-33.370;-70.552;2023-12-22T09:35:37;91861.66;;;14.63;100.00
17521;BME280;8878;-33.370;-70.552;2023-12-22T09:38:08;91868.44;;;14.69;100.00
17521;BME280;8878;-33.370;-70.552;2023-12-22T09:40:38;91858.13;;;14.67;100.00
17521;BME280;8878;-33.370;-70.552;2023-12-22T09:43:09;91867.53;;;14.73;100.00
17521;BME280;8878;-33.370;-70.552;2023-12-22T09:45:39;91866.97;;;14.76;100.00
17521;BME280;8878;-33.370;-70.552;2023-12-22T09:48:09;91866.47;;;14.74;100.00
17521;BME280;8878;-33.370;-70.552;2023-12-22T09:50:44;91874.16;;;14.62;100.00
17521;BME280;8878;-33.370;-70.552;2023-12-22T09:53:14;91881.13;;;14.58;100.00
17521;BME280;8878;-33.370;-70.552;2023-12-22T09:55:46;91877.41;;;14.59;100.00
17521;BME280;8878;-33.370;-70.552;2023-12-22T09:58:15;91884.56;;;14.59;100.00
17521;BME280;8878;-33.370;-70.552;2023-12-22T10:00:45;91890.16;;;14.57;100.00
17521;BME280;8878;-33.370;-70.552;2023-12-22T10:03:16;91890.00;;;14.54;100.00
17521;BME280;8878;-33.370;-70.552;2023-12-22T10:05:49;91889.59;;;14.60;100.00
17521;BME280;8878;-33.370;-70.552;2023-12-22T10:08:19;91892.75;;;14.62;100.00
17521;BME280;8878;-33.370;-70.552;2023-12-22T10:10:49;91883.69;;;14.63;100.00
17521;BME280;8878;-33.370;-70.552;2023-12-22T10:13:20;91892.13;;;14.65;100.00
17521;BME280;8878;-33.370;-70.552;2023-12-22T10:15:49;91896.88;;;14.68;100.00
17521;BME280;8878;-33.370;-70.552;2023-12-22T10:18:22;91896.56;;;14.70;100.00
17521;BME280;8878;-33.370;-70.552;2023-12-22T10:20:54;91884.25;;;14.74;100.00
17521;BME280;8878;-33.370;-70.552;2023-12-22T10:23:25;91899.78;;;14.80;100.00
17521;BME280;8878;-33.370;-70.552;2023-12-22T10:25:54;91896.44;;;14.88;100.00
17521;BME280;8878;-33.370;-70.552;2023-12-22T10:28:28;91898.13;;;14.98;100.00
17521;BME280;8878;-33.370;-70.552;2023-12-22T10:30:57;91894.06;;;15.01;100.00
17521;BME280;8878;-33.370;-70.552;2023-12-22T10:33:33;91895.72;;;15.10;100.00
17521;BME280;8878;-33.370;-70.552;2023-12-22T10:36:05;91897.84;;;15.22;100.00
17521;BME280;8878;-33.370;-70.552;2023-12-22T10:38:36;91899.22;;;15.33;100.00
17521;BME280;8878;-33.370;-70.552;2023-12-22T10:41:07;91895.84;;;15.41;100.00
17521;BME280;8878;-33.370;-70.552;2023-12-22T10:43:38;91904.19;;;15.48;100.00
17521;BME280;8878;-33.370;-70.552;2023-12-22T10:46:08;91908.03;;;15.56;100.00
17521;BME280;8878;-33.370;-70.552;2023-12-22T10:48:37;91903.28;;;15.53;100.00
17521;BME280;8878;-33.370;-70.552;2023-12-22T10:51:11;91897.44;;;15.64;100.00
17521;BME280;8878;-33.370;-70.552;2023-12-22T10:53:41;91907.13;;;15.83;100.00
17521;BME280;8878;-33.370;-70.552;2023-12-22T10:56:11;91906.25;;;15.96;100.00
17521;BME280;8878;-33.370;-70.552;2023-12-22T10:58:44;91908.84;;;16.10;100.00
17521;BME280;8878;-33.370;-70.552;2023-12-22T11:01:14;91902.13;;;16.12;97.29
17521;BME280;8878;-33.370;-70.552;2023-12-22T11:03:45;91902.03;;;16.26;99.99
17521;BME280;8878;-33.370;-70.552;2023-12-22T11:06:20;91904.13;;;16.37;97.93
17521;BME280;8878;-33.370;-70.552;2023-12-22T11:08:51;91903.09;;;16.47;94.50
17521;BME280;8878;-33.370;-70.552;2023-12-22T11:11:27;91905.31;;;16.54;95.71
17521;BME280;8878;-33.370;-70.552;2023-12-22T11:13:57;91906.72;;;16.60;92.57
17521;BME280;8878;-33.370;-70.552;2023-12-22T11:16:29;91914.94;;;16.72;90.15
17521;BME280;8878;-33.370;-70.552;2023-12-22T11:19:00;91907.13;;;16.84;91.05
17521;BME280;8878;-33.370;-70.552;2023-12-22T11:21:31;91911.25;;;16.90;87.83
17521;BME280;8878;-33.370;-70.552;2023-12-22T11:24:00;91909.53;;;16.94;86.41
17521;BME280;8878;-33.370;-70.552;2023-12-22T11:26:30;91920.03;;;16.91;86.76
17521;BME280;8878;-33.370;-70.552;2023-12-22T11:29:00;91922.56;;;16.96;88.13
17521;BME280;8878;-33.370;-70.552;2023-12-22T11:31:32;91917.41;;;17.08;87.61
17521;BME280;8878;-33.370;-70.552;2023-12-22T11:34:02;91915.69;;;17.03;87.37
17521;BME280;8878;-33.370;-70.552;2023-12-22T11:36:34;91918.16;;;17.00;87.86
17521;BME280;8878;-33.370;-70.552;2023-12-22T11:39:03;91921.00;;;17.03;88.02
17521;BME280;8878;-33.370;-70.552;2023-12-22T11:41:35;91916.13;;;17.05;85.52
17521;BME280;8878;-33.370;-70.552;2023-12-22T11:44:06;91916.91;;;17.06;85.62
17521;BME280;8878;-33.370;-70.552;2023-12-22T11:46:35;91920.88;;;17.17;80.41
17521;BME280;8878;-33.370;-70.552;2023-12-22T11:49:05;91914.44;;;17.27;80.44
17521;BME280;8878;-33.370;-70.552;2023-12-22T11:51:36;91915.72;;;17.38;80.80
17521;BME280;8878;-33.370;-70.552;2023-12-22T11:54:43;91913.06;;;17.46;81.32
17521;BME280;8878;-33.370;-70.552;2023-12-22T11:57:31;91919.19;;;17.55;77.58
17521;BME280;8878;-33.370;-70.552;2023-12-22T12:00:06;91921.22;;;17.50;78.93
17521;BME280;8878;-33.370;-70.552;2023-12-22T12:02:39;91911.34;;;17.59;77.26
17521;BME280;8878;-33.370;-70.552;2023-12-22T12:05:09;91907.94;;;17.67;75.71
17521;BME280;8878;-33.370;-70.552;2023-12-22T12:07:41;91912.78;;;17.74;77.59
17521;BME280;8878;-33.370;-70.552;2023-12-22T12:10:13;91909.16;;;17.78;75.79
17521;BME280;8878;-33.370;-70.552;2023-12-22T12:12:44;91906.81;;;17.85;73.06
17521;BME280;8878;-33.370;-70.552;2023-12-22T12:15:17;91903.53;;;17.88;74.31
17521;BME280;8878;-33.370;-70.552;2023-12-22T12:17:48;91902.38;;;17.98;71.95
17521;BME280;8878;-33.370;-70.552;2023-12-22T12:20:19;91909.91;;;18.05;72.25
17521;BME280;8878;-33.370;-70.552;2023-12-22T12:22:52;91903.63;;;18.18;71.76
17521;BME280;8878;-33.370;-70.552;2023-12-22T12:25:23;91900.28;;;18.29;71.13
17521;BME280;8878;-33.370;-70.552;2023-12-22T12:28:01;91895.72;;;18.38;70.05
17521;BME280;8878;-33.370;-70.552;2023-12-22T12:30:31;91898.97;;;18.53;69.15
17521;BME280;8878;-33.370;-70.552;2023-12-22T12:33:08;91899.59;;;18.58;68.63
17521;BME280;8878;-33.370;-70.552;2023-12-22T12:35:39;91899.28;;;18.68;68.80
17521;BME280;8878;-33.370;-70.552;2023-12-22T12:38:12;91891.53;;;18.75;69.17
17521;BME280;8878;-33.370;-70.552;2023-12-22T12:40:46;91899.84;;;18.83;69.24
17521;BME280;8878;-33.370;-70.552;2023-12-22T12:43:16;91892.41;;;18.88;69.44
17521;BME280;8878;-33.370;-70.552;2023-12-22T12:45:46;91887.19;;;18.92;68.76
17521;BME280;8878;-33.370;-70.552;2023-12-22T12:48:17;91893.28;;;19.01;67.74
17521;BME280;8878;-33.370;-70.552;2023-12-22T12:50:46;91900.19;;;19.02;67.96
17521;BME280;8878;-33.370;-70.552;2023-12-22T12:53:17;91893.88;;;19.06;66.59
17521;BME280;8878;-33.370;-70.552;2023-12-22T12:55:47;91897.34;;;19.07;66.46
17521;BME280;8878;-33.370;-70.552;2023-12-22T12:58:17;91892.84;;;19.20;66.32
17521;BME280;8878;-33.370;-70.552;2023-12-22T13:00:49;91895.88;;;19.39;67.64
17521;BME280;8878;-33.370;-70.552;2023-12-22T13:03:22;91896.31;;;19.49;65.72
17521;BME280;8878;-33.370;-70.552;2023-12-22T13:05:52;91890.56;;;19.60;64.94